createdAt,value
2023-05-31T00:01:05.515Z,26.81
2023-05-31T00:03:32.831Z,26.79
2023-05-31T00:06:00.090Z,26.81
2023-05-31T00:08:27.450Z,26.82
2023-05-31T00:10:54.622Z,26.85
2023-05-31T00:13:22.037Z,26.89
2023-05-31T00:15:49.287Z,26.90
2023-05-31T00:18:17.903Z,26.89
2023-05-31T00:20:45.209Z,26.92
2023-05-31T00:23:12.411Z,26.92
2023-05-31T00:25:39.567Z,26.91
2023-05-31T00:28:06.708Z,26.90
2023-05-31T00:30:34.150Z,26.91
2023-05-31T00:33:01.376Z,26.89
2023-05-31T00:35:29.970Z,26.89
2023-05-31T00:37:57.315Z,26.87
2023-05-31T00:40:24.575Z,26.71
2023-05-31T00:42:51.732Z,26.78
2023-05-31T00:45:18.857Z,26.77
2023-05-31T00:47:46.528Z,26.76
2023-05-31T00:50:14.127Z,26.76
2023-05-31T00:52:44.132Z,26.74
2023-05-31T00:55:11.639Z,26.82
2023-05-31T00:57:39.070Z,26.82
2023-05-31T01:03:18.438Z,26.88
2023-05-31T01:05:46.223Z,26.90
2023-05-31T01:08:14.982Z,26.88
2023-05-31T01:10:42.405Z,26.79
2023-05-31T01:13:17.421Z,26.83
2023-05-31T01:15:48.090Z,26.85
2023-05-31T01:18:21.634Z,26.81
2023-05-31T01:20:50.687Z,26.86
2023-05-31T01:23:37.511Z,26.78
2023-05-31T01:26:34.559Z,26.78
2023-05-31T01:29:06.250Z,26.74
2023-05-31T01:31:36.365Z,26.67
2023-05-31T01:34:04.768Z,26.65
2023-05-31T01:36:32.174Z,26.71
2023-05-31T01:39:00.994Z,26.73
2023-05-31T01:41:29.580Z,26.78
2023-05-31T01:43:58.556Z,26.79
2023-05-31T01:46:28.138Z,26.84
2023-05-31T01:48:56.290Z,26.84
2023-05-31T01:51:23.526Z,26.83
2023-05-31T01:53:50.820Z,26.75
2023-05-31T01:56:19.458Z,26.84
2023-05-31T01:58:47.183Z,26.81
2023-05-31T02:01:14.836Z,26.82
2023-05-31T02:03:43.875Z,26.78
2023-05-31T02:06:11.113Z,26.82
2023-05-31T02:08:38.328Z,26.77
2023-05-31T02:11:05.657Z,26.68
2023-05-31T02:13:32.799Z,26.56
2023-05-31T02:16:00.306Z,26.66
2023-05-31T02:18:27.806Z,26.71
2023-05-31T02:20:56.544Z,26.70
2023-05-31T02:23:23.929Z,26.73
2023-05-31T02:25:51.753Z,26.72
2023-05-31T02:28:19.223Z,26.76
2023-05-31T02:30:54.900Z,26.70
2023-05-31T02:33:22.149Z,26.81
2023-05-31T02:35:49.306Z,26.84
2023-05-31T02:38:19.203Z,26.86
2023-05-31T02:40:46.428Z,26.82
2023-05-31T02:43:13.569Z,26.79
2023-05-31T02:45:40.734Z,26.63
2023-05-31T02:48:07.935Z,26.73
2023-05-31T02:50:35.107Z,26.78
2023-05-31T02:53:02.259Z,26.77
2023-05-31T02:55:30.989Z,26.70
2023-05-31T02:57:58.122Z,26.67
2023-05-31T03:00:25.456Z,26.69
2023-05-31T03:02:52.972Z,26.68
2023-05-31T03:05:20.356Z,26.70
2023-05-31T03:07:47.758Z,26.70
2023-05-31T03:10:14.883Z,26.70
2023-05-31T03:12:43.527Z,26.72
2023-05-31T03:15:11.098Z,26.77
2023-05-31T03:17:38.317Z,26.77
2023-05-31T03:20:07.339Z,26.82
2023-05-31T03:22:34.525Z,26.63
2023-05-31T03:25:02.123Z,26.78
2023-05-31T03:27:29.273Z,26.76
2023-05-31T03:29:57.934Z,26.74
2023-05-31T03:32:25.083Z,26.81
2023-05-31T03:34:52.368Z,26.79
2023-05-31T03:37:19.523Z,26.77
2023-05-31T03:39:46.683Z,26.72
2023-05-31T03:42:13.812Z,26.69
2023-05-31T03:44:40.982Z,26.64
2023-05-31T03:47:09.612Z,26.64
2023-05-31T03:49:36.722Z,26.66
2023-05-31T03:52:04.295Z,26.68
2023-05-31T03:54:31.444Z,26.67
2023-05-31T03:56:58.594Z,26.68
2023-05-31T03:59:25.752Z,26.77
2023-05-31T04:01:52.902Z,26.78
2023-05-31T04:04:21.613Z,26.80
2023-05-31T04:06:48.931Z,26.80
2023-05-31T04:09:16.063Z,26.80
2023-05-31T04:11:43.192Z,26.65
2023-05-31T04:14:10.324Z,26.71
2023-05-31T04:16:37.623Z,26.86
2023-05-31T04:19:04.966Z,26.89
2023-05-31T04:21:33.588Z,26.65
2023-05-31T04:24:00.761Z,26.26
2023-05-31T04:26:27.977Z,26.11
2023-05-31T04:28:55.248Z,26.11
2023-05-31T04:31:22.934Z,26.07
2023-05-31T04:33:50.067Z,25.99
2023-05-31T04:36:17.214Z,25.94
2023-05-31T04:38:45.681Z,25.87
2023-05-31T04:41:12.864Z,25.83
2023-05-31T04:43:40.010Z,25.82
2023-05-31T04:46:08.419Z,25.73
2023-05-31T04:48:40.425Z,25.69
2023-05-31T04:51:10.068Z,25.68
2023-05-31T04:53:38.988Z,25.59
2023-05-31T04:56:11.369Z,25.68
2023-05-31T04:58:48.964Z,25.71
2023-05-31T05:01:16.908Z,25.56
2023-05-31T05:03:47.400Z,25.65
2023-05-31T05:06:19.873Z,25.71
2023-05-31T05:08:49.074Z,25.56
2023-05-31T05:11:27.051Z,25.49
2023-05-31T05:13:54.855Z,25.48
2023-05-31T05:16:24.057Z,25.43
2023-05-31T05:18:57.239Z,25.49
2023-05-31T05:21:25.773Z,25.35
2023-05-31T05:23:55.080Z,25.40
2023-05-31T05:26:39.914Z,25.41
2023-05-31T05:29:08.681Z,25.35
2023-05-31T05:31:38.214Z,25.28
2023-05-31T05:34:11.030Z,25.34
2023-05-31T05:36:39.184Z,25.20
2023-05-31T05:39:10.164Z,25.06
2023-05-31T05:41:41.563Z,25.29
2023-05-31T05:44:14.294Z,25.26
2023-05-31T05:46:46.586Z,25.26
2023-05-31T05:49:19.402Z,25.26
2023-05-31T05:51:52.632Z,25.23
2023-05-31T05:54:22.957Z,25.16
2023-05-31T05:56:54.383Z,25.17
2023-05-31T05:59:23.760Z,25.09
2023-05-31T06:01:51.974Z,25.15
2023-05-31T06:04:21.893Z,25.21
2023-05-31T06:06:52.515Z,25.12
2023-05-31T06:09:21.497Z,25.19
2023-05-31T06:11:54.344Z,25.22
2023-05-31T06:14:30.490Z,25.22
2023-05-31T06:17:02.013Z,25.16
2023-05-31T06:19:35.017Z,25.12
2023-05-31T06:22:03.690Z,25.08
2023-05-31T06:24:34.946Z,25.09
2023-05-31T06:27:06.354Z,25.09
2023-05-31T06:29:35.647Z,25.06
2023-05-31T06:32:08.509Z,25.04
2023-05-31T06:34:42.099Z,25.01
2023-05-31T06:37:15.665Z,25.00
2023-05-31T06:39:44.865Z,24.98
2023-05-31T06:42:22.485Z,25.02
2023-05-31T06:47:22.283Z,24.99
2023-05-31T06:49:49.517Z,25.00
2023-05-31T06:52:16.632Z,24.99
2023-05-31T06:54:44.504Z,25.00
2023-05-31T06:57:11.632Z,25.01
2023-05-31T06:59:40.102Z,25.03
2023-05-31T07:02:07.727Z,25.10
2023-05-31T07:04:34.910Z,25.02
2023-05-31T07:07:02.046Z,24.96
2023-05-31T07:09:29.241Z,24.91
2023-05-31T07:11:56.473Z,24.89
2023-05-31T07:14:23.596Z,24.93
2023-05-31T07:16:52.121Z,24.86
2023-05-31T07:19:19.268Z,24.94
2023-05-31T07:21:46.420Z,25.03
2023-05-31T07:24:13.627Z,25.11
2023-05-31T07:26:40.761Z,25.10
2023-05-31T07:29:08.007Z,25.05
2023-05-31T07:31:35.557Z,25.03
2023-05-31T07:34:04.050Z,25.04
2023-05-31T07:36:31.242Z,25.07
2023-05-31T07:38:58.396Z,25.10
2023-05-31T07:41:25.571Z,25.10
2023-05-31T07:43:52.776Z,25.15
2023-05-31T07:46:19.903Z,25.18
2023-05-31T07:48:47.171Z,25.24
2023-05-31T07:51:15.734Z,25.27
2023-05-31T07:53:42.938Z,25.24
2023-05-31T07:56:10.306Z,25.24
2023-05-31T07:58:37.544Z,25.25
2023-05-31T08:01:05.065Z,25.19
2023-05-31T08:03:32.461Z,25.20
2023-05-31T08:05:59.698Z,25.13
2023-05-31T08:08:28.616Z,25.03
2023-05-31T08:10:55.838Z,25.22
2023-05-31T08:13:23.022Z,25.24
2023-05-31T08:15:50.167Z,25.18
2023-05-31T08:18:17.327Z,25.23
2023-05-31T08:20:44.524Z,25.23
2023-05-31T08:23:18.072Z,25.23
2023-05-31T08:25:46.698Z,25.24
2023-05-31T08:28:13.949Z,25.27
2023-05-31T08:30:42.828Z,25.27
2023-05-31T08:33:11.250Z,25.28
2023-05-31T08:35:38.381Z,25.35
2023-05-31T08:38:05.590Z,25.38
2023-05-31T08:40:32.885Z,25.36
2023-05-31T08:43:03.937Z,25.35
2023-05-31T08:45:31.462Z,25.36
2023-05-31T08:48:03.536Z,25.35
2023-05-31T08:50:32.553Z,25.33
2023-05-31T08:53:00.336Z,25.36
2023-05-31T08:55:28.979Z,25.36
2023-05-31T08:57:57.595Z,25.30
2023-05-31T09:00:26.786Z,25.37
2023-05-31T09:02:54.222Z,25.37
2023-05-31T09:05:21.569Z,25.35
2023-05-31T09:07:48.806Z,25.31
2023-05-31T09:10:16.078Z,25.17
2023-05-31T09:12:43.656Z,25.30
2023-05-31T09:15:13.825Z,25.30
2023-05-31T09:17:44.267Z,25.11
2023-05-31T09:20:11.543Z,25.35
2023-05-31T09:22:39.057Z,25.38
2023-05-31T09:25:06.797Z,25.41
2023-05-31T09:27:37.891Z,25.48
2023-05-31T09:30:06.864Z,25.42
2023-05-31T09:32:35.301Z,25.45
2023-05-31T09:35:13.558Z,25.45
2023-05-31T09:37:44.565Z,25.46
2023-05-31T09:40:14.105Z,25.43
2023-05-31T09:42:47.972Z,25.43
2023-05-31T09:45:15.628Z,25.39
2023-05-31T09:47:43.043Z,25.41
2023-05-31T09:50:12.222Z,25.43
2023-05-31T09:52:39.441Z,25.41
2023-05-31T09:55:07.862Z,25.39
2023-05-31T09:57:36.096Z,25.43
2023-05-31T10:00:03.547Z,25.47
2023-05-31T10:02:30.978Z,25.48
2023-05-31T10:04:58.959Z,25.51
2023-05-31T10:07:28.460Z,25.53
2023-05-31T10:09:55.657Z,25.59
2023-05-31T10:12:25.664Z,25.56
2023-05-31T10:15:00.030Z,25.61
2023-05-31T10:17:29.757Z,25.61
2023-05-31T10:20:03.728Z,25.52
2023-05-31T10:22:32.972Z,25.53
2023-05-31T10:25:04.596Z,25.53
2023-05-31T10:27:38.680Z,25.48
2023-05-31T10:30:09.760Z,25.46
2023-05-31T10:32:42.287Z,25.37
2023-05-31T10:35:10.248Z,25.42
2023-05-31T10:37:40.574Z,25.44
2023-05-31T10:40:13.799Z,25.42
2023-05-31T10:42:46.162Z,25.43
2023-05-31T10:45:17.057Z,25.51
2023-05-31T10:47:50.982Z,25.56
2023-05-31T10:50:19.093Z,25.61
2023-05-31T10:52:49.237Z,25.63
2023-05-31T10:55:17.257Z,25.63
2023-05-31T10:57:44.450Z,25.74
2023-05-31T11:00:12.616Z,25.74
2023-05-31T11:02:47.940Z,25.70
2023-05-31T11:05:22.236Z,25.66
2023-05-31T11:07:51.965Z,25.63
2023-05-31T11:10:26.998Z,25.65
2023-05-31T11:12:57.762Z,25.62
2023-05-31T11:15:39.418Z,25.62
2023-05-31T11:18:09.077Z,25.62
2023-05-31T11:20:36.688Z,25.61
2023-05-31T11:23:29.474Z,25.65
2023-05-31T11:26:16.576Z,25.68
2023-05-31T11:29:00.521Z,25.63
2023-05-31T11:32:01.538Z,25.67
2023-05-31T11:34:31.688Z,25.69
2023-05-31T11:37:00.475Z,25.75
2023-05-31T11:39:29.832Z,25.87
2023-05-31T11:41:58.186Z,25.87
2023-05-31T11:44:30.110Z,25.89
2023-05-31T11:47:00.932Z,26.01
2023-05-31T11:49:28.804Z,26.01
2023-05-31T11:51:56.949Z,25.91
2023-05-31T11:54:29.704Z,25.97
2023-05-31T11:57:01.043Z,25.95
2023-05-31T11:59:28.247Z,25.98
2023-05-31T12:01:59.796Z,25.93
2023-05-31T12:04:34.320Z,26.02
2023-05-31T12:07:01.653Z,26.02
2023-05-31T12:09:30.238Z,26.00
2023-05-31T12:11:57.946Z,26.01
2023-05-31T12:14:26.157Z,26.06
2023-05-31T12:16:53.435Z,26.06
2023-05-31T12:19:20.645Z,26.00
2023-05-31T12:21:48.205Z,26.11
2023-05-31T12:24:16.828Z,26.07
2023-05-31T12:26:46.596Z,26.13
2023-05-31T12:29:14.303Z,26.20
2023-05-31T12:31:42.771Z,26.27
2023-05-31T12:34:10.964Z,26.28
2023-05-31T12:36:40.038Z,26.33
2023-05-31T12:39:12.489Z,26.32
2023-05-31T12:41:42.560Z,26.37
2023-05-31T12:44:12.739Z,26.37
2023-05-31T12:46:41.538Z,26.39
2023-05-31T12:49:14.245Z,26.43
2023-05-31T12:51:42.970Z,26.46
2023-05-31T12:54:13.738Z,26.42
2023-05-31T12:56:41.078Z,26.51
2023-05-31T12:59:08.584Z,26.56
2023-05-31T13:01:37.477Z,26.55
2023-05-31T13:04:05.249Z,26.55
2023-05-31T13:06:33.329Z,26.55
2023-05-31T13:09:00.543Z,26.55
2023-05-31T13:11:27.733Z,26.52
2023-05-31T13:13:55.172Z,26.55
2023-05-31T13:16:22.366Z,26.61
2023-05-31T13:18:50.922Z,26.61
2023-05-31T13:21:18.241Z,26.71
2023-05-31T13:23:45.375Z,26.77
2023-05-31T13:26:12.521Z,26.78
2023-05-31T13:28:39.671Z,26.85
2023-05-31T13:31:06.814Z,26.86
2023-05-31T13:33:34.442Z,26.87
2023-05-31T13:36:03.102Z,26.95
2023-05-31T13:38:30.225Z,26.97
2023-05-31T13:40:57.741Z,26.96
2023-05-31T13:43:24.981Z,26.98
2023-05-31T13:45:52.609Z,26.94
2023-05-31T13:48:20.301Z,26.99
2023-05-31T13:50:47.545Z,26.92
2023-05-31T13:53:16.165Z,26.96
2023-05-31T13:55:46.899Z,26.96
2023-05-31T13:58:23.308Z,26.88
2023-05-31T14:00:55.981Z,27.01
2023-05-31T14:03:23.520Z,27.03
2023-05-31T14:05:50.752Z,27.10
2023-05-31T14:08:19.362Z,27.20
2023-05-31T14:10:46.690Z,27.22
2023-05-31T14:13:14.177Z,27.26
2023-05-31T14:15:41.320Z,27.20
2023-05-31T14:18:09.172Z,27.34
2023-05-31T14:20:36.540Z,27.28
2023-05-31T14:23:04.419Z,27.38
2023-05-31T14:25:32.948Z,27.37
2023-05-31T14:28:00.240Z,27.40
2023-05-31T14:30:27.499Z,27.23
2023-05-31T14:32:54.885Z,27.27
2023-05-31T14:35:22.622Z,27.30
2023-05-31T14:37:55.249Z,27.27
2023-05-31T14:40:34.707Z,27.27
2023-05-31T14:43:02.078Z,27.36
2023-05-31T14:45:29.209Z,27.41
2023-05-31T14:47:56.515Z,27.44
2023-05-31T14:50:23.861Z,27.43
2023-05-31T14:52:50.984Z,27.52
2023-05-31T14:55:18.161Z,27.59
2023-05-31T14:57:46.691Z,27.65
2023-05-31T15:00:14.510Z,27.67
2023-05-31T15:02:41.760Z,27.68
2023-05-31T15:05:09.954Z,27.74
2023-05-31T15:07:37.116Z,27.54
2023-05-31T15:10:05.074Z,27.44
2023-05-31T15:12:32.195Z,27.37
2023-05-31T15:15:00.695Z,27.41
2023-05-31T15:17:28.000Z,27.54
2023-05-31T15:19:55.340Z,27.63
2023-05-31T15:22:22.476Z,27.63
2023-05-31T15:24:49.684Z,27.66
2023-05-31T15:27:16.819Z,27.26
2023-05-31T15:29:43.950Z,27.71
2023-05-31T15:32:12.473Z,27.67
2023-05-31T15:34:39.601Z,27.69
2023-05-31T15:37:06.778Z,27.72
2023-05-31T15:39:33.930Z,27.71
2023-05-31T15:42:01.051Z,27.76
2023-05-31T15:44:28.878Z,27.80
2023-05-31T15:46:56.194Z,27.81
2023-05-31T15:49:24.704Z,27.83
2023-05-31T15:51:51.815Z,27.82
2023-05-31T15:54:19.026Z,27.80
2023-05-31T15:56:46.162Z,27.85
2023-05-31T15:59:13.293Z,27.82
2023-05-31T16:01:40.525Z,27.80
2023-05-31T16:04:07.854Z,27.82
2023-05-31T16:06:36.389Z,27.80
2023-05-31T16:09:03.835Z,27.74
2023-05-31T16:11:31.023Z,27.79
2023-05-31T16:13:58.154Z,27.77
2023-05-31T16:16:25.507Z,27.68
2023-05-31T16:18:52.943Z,27.43
2023-05-31T16:21:20.143Z,27.70
2023-05-31T16:23:48.664Z,27.56
2023-05-31T16:26:15.777Z,27.70
2023-05-31T16:28:42.942Z,27.76
2023-05-31T16:31:13.428Z,27.80
2023-05-31T16:33:42.066Z,27.77
2023-05-31T16:36:09.725Z,27.78
2023-05-31T16:38:36.970Z,27.75
2023-05-31T16:41:05.449Z,27.73
2023-05-31T16:43:32.593Z,27.66
2023-05-31T16:45:59.832Z,27.57
2023-05-31T16:48:27.308Z,27.64
2023-05-31T16:50:54.678Z,27.62
2023-05-31T16:53:21.887Z,27.58
2023-05-31T16:55:49.478Z,27.50
2023-05-31T16:58:17.997Z,27.36
2023-05-31T17:00:45.158Z,27.33
2023-05-31T17:03:12.556Z,27.29
2023-05-31T17:05:41.170Z,27.29
2023-05-31T17:08:08.403Z,27.30
2023-05-31T17:10:35.783Z,27.27
2023-05-31T17:13:02.928Z,27.29
2023-05-31T17:15:31.455Z,27.35
2023-05-31T17:17:59.202Z,27.34
2023-05-31T17:20:26.478Z,27.39
2023-05-31T17:22:53.632Z,27.33
2023-05-31T17:25:20.907Z,27.35
2023-05-31T17:27:48.068Z,27.36
2023-05-31T17:30:15.631Z,27.25
2023-05-31T17:32:44.205Z,27.24
2023-05-31T17:35:11.359Z,27.28
2023-05-31T17:37:38.541Z,27.26
2023-05-31T17:40:07.244Z,27.26
2023-05-31T17:42:34.386Z,27.18
2023-05-31T17:45:01.530Z,27.19
2023-05-31T17:47:29.161Z,27.16
2023-05-31T17:49:57.855Z,27.17
2023-05-31T17:52:25.067Z,27.14
2023-05-31T17:54:52.192Z,27.10
2023-05-31T17:57:19.312Z,27.10
2023-05-31T17:59:46.460Z,27.16
2023-05-31T18:02:13.647Z,27.21
2023-05-31T18:04:40.830Z,27.22
2023-05-31T18:07:09.319Z,27.25
2023-05-31T18:09:36.463Z,27.24
2023-05-31T18:12:04.061Z,27.22
2023-05-31T18:14:31.271Z,27.21
2023-05-31T18:16:58.541Z,27.19
2023-05-31T18:19:25.655Z,27.19
2023-05-31T18:21:52.898Z,27.17
2023-05-31T18:24:21.504Z,27.18
2023-05-31T18:26:50.835Z,27.08
2023-05-31T18:29:18.246Z,27.05
2023-05-31T18:31:45.403Z,27.06
2023-05-31T18:34:12.566Z,27.03
2023-05-31T18:36:39.694Z,27.03
2023-05-31T18:39:06.801Z,27.00
2023-05-31T18:41:35.275Z,27.01
2023-05-31T18:44:02.766Z,27.06
2023-05-31T18:46:29.951Z,27.08
2023-05-31T18:48:57.207Z,27.14
2023-05-31T18:51:24.383Z,27.14
2023-05-31T18:53:51.911Z,26.93
2023-05-31T18:56:19.025Z,27.15
2023-05-31T18:58:47.556Z,27.04
2023-05-31T19:01:14.775Z,27.01
2023-05-31T19:03:42.061Z,27.08
2023-05-31T19:06:09.383Z,27.08
2023-05-31T19:08:36.561Z,27.04
2023-05-31T19:11:03.833Z,27.05
2023-05-31T19:13:30.997Z,27.07
2023-05-31T19:15:59.872Z,27.05
2023-05-31T19:18:27.173Z,26.99
2023-05-31T19:20:54.360Z,26.95
2023-05-31T19:23:21.518Z,26.96
2023-05-31T19:25:48.669Z,27.00
2023-05-31T19:28:15.957Z,26.64
2023-05-31T19:30:43.498Z,27.04
2023-05-31T19:33:12.157Z,27.10
2023-05-31T19:35:39.647Z,27.13
2023-05-31T19:38:06.925Z,27.10
2023-05-31T19:40:34.147Z,27.05
2023-05-31T19:43:01.316Z,27.10
2023-05-31T19:45:28.495Z,27.07
2023-05-31T19:47:55.647Z,27.08
2023-05-31T19:50:24.219Z,27.07
2023-05-31T19:52:51.321Z,27.04
2023-05-31T19:55:18.453Z,27.04
2023-05-31T19:57:45.790Z,27.02
2023-05-31T20:00:13.373Z,27.05
2023-05-31T20:02:40.504Z,27.03
2023-05-31T20:05:08.324Z,26.95
2023-05-31T20:07:36.824Z,26.88
2023-05-31T20:10:04.416Z,26.94
2023-05-31T20:12:31.592Z,26.94
2023-05-31T20:14:59.949Z,27.03
2023-05-31T20:17:29.385Z,26.95
2023-05-31T20:19:56.640Z,27.03
2023-05-31T20:22:23.753Z,27.06
2023-05-31T20:24:52.249Z,27.01
2023-05-31T20:27:19.413Z,27.05
2023-05-31T20:29:46.550Z,27.02
2023-05-31T20:32:13.726Z,27.03
2023-05-31T20:34:41.025Z,26.99
2023-05-31T20:37:08.247Z,26.94
2023-05-31T20:39:35.360Z,26.99
2023-05-31T20:42:04.277Z,26.98
2023-05-31T20:44:33.295Z,26.98
2023-05-31T20:47:00.430Z,26.98
2023-05-31T20:49:27.636Z,26.95
2023-05-31T20:51:54.777Z,26.89
2023-05-31T20:54:21.902Z,26.89
2023-05-31T20:56:49.408Z,26.86
2023-05-31T20:59:17.945Z,26.94
2023-05-31T21:01:45.120Z,26.98
2023-05-31T21:04:12.279Z,26.96
2023-05-31T21:06:39.613Z,27.02
2023-05-31T21:09:06.731Z,27.03
2023-05-31T21:11:34.315Z,27.00
2023-05-31T21:14:01.428Z,27.03
2023-05-31T21:16:29.944Z,27.02
2023-05-31T21:18:57.110Z,26.98
2023-05-31T21:21:24.407Z,26.93
2023-05-31T21:23:51.543Z,26.92
2023-05-31T21:26:18.736Z,26.97
2023-05-31T21:28:45.864Z,26.99
2023-05-31T21:31:13.024Z,26.96
2023-05-31T21:33:41.549Z,26.88
2023-05-31T21:36:08.978Z,26.87
2023-05-31T21:38:36.106Z,26.89
2023-05-31T21:41:05.222Z,26.87
2023-05-31T21:43:34.545Z,26.88
2023-05-31T21:46:01.658Z,26.92
2023-05-31T21:48:28.808Z,26.87
2023-05-31T21:50:57.280Z,26.91
2023-05-31T21:53:24.416Z,26.94
2023-05-31T21:55:51.549Z,26.96
2023-05-31T21:58:18.659Z,26.97
2023-05-31T22:00:45.832Z,26.94
2023-05-31T22:03:13.009Z,26.98
2023-05-31T22:05:40.121Z,26.97
2023-05-31T22:08:08.595Z,26.99
2023-05-31T22:10:35.740Z,26.98
2023-05-31T22:13:02.870Z,26.97
2023-05-31T22:15:30.043Z,26.98
2023-05-31T22:17:57.442Z,26.93
2023-05-31T22:20:24.621Z,26.96
2023-05-31T22:22:51.746Z,26.90
2023-05-31T22:25:20.365Z,26.84
2023-05-31T22:27:47.531Z,26.84
2023-05-31T22:30:15.053Z,26.85
2023-05-31T22:32:42.259Z,26.85
2023-05-31T22:35:10.101Z,26.88
2023-05-31T22:37:37.202Z,26.87
2023-05-31T22:40:05.122Z,26.94
2023-05-31T22:42:33.617Z,26.96
2023-05-31T22:45:00.733Z,26.90
2023-05-31T22:47:28.089Z,26.97
2023-05-31T22:49:55.219Z,26.98
2023-05-31T22:52:22.349Z,26.97
2023-05-31T22:54:49.475Z,26.97
2023-05-31T22:57:16.649Z,26.91
2023-05-31T22:59:45.100Z,26.89
2023-05-31T23:02:12.272Z,26.88
2023-05-31T23:04:39.424Z,26.91
2023-05-31T23:07:06.680Z,26.96
2023-05-31T23:09:33.849Z,26.91
2023-05-31T23:12:01.017Z,26.82
2023-05-31T23:14:28.348Z,26.84
2023-05-31T23:16:58.882Z,26.84
2023-05-31T23:19:26.070Z,26.82
2023-05-31T23:21:53.258Z,26.85
2023-05-31T23:24:20.425Z,26.88
2023-05-31T23:26:47.552Z,26.92
2023-05-31T23:29:14.676Z,26.95
2023-05-31T23:31:41.878Z,26.94
2023-05-31T23:34:10.379Z,26.89
2023-05-31T23:36:37.490Z,26.95
2023-05-31T23:39:04.629Z,26.94
2023-05-31T23:41:31.756Z,26.95
2023-05-31T23:43:58.944Z,26.95
2023-05-31T23:46:26.219Z,26.95
2023-05-31T23:48:53.420Z,26.96
2023-05-31T23:51:22.002Z,26.97
2023-05-31T23:53:49.186Z,26.97
2023-05-31T23:56:16.306Z,26.88
2023-05-31T23:58:43.443Z,26.86
